• Join FlightAware (Why Join?)
  • Login
  • US Flag 
06:30PM EDT


 

Airport Tracker/Info


-or-


 

Live Flight TrackerFlight Track Log ✈ AWE3287 ✈ 01-May-2013 ✈ KMHT - KPHL

Flight Track Log - Related Links

Times and Time Zones

All times are in EDT time to prevent confusion due to time zone crossing. See the AWE3287 flight status page for this flight to view local times or setup timezone preferences in your user account.

Time Position Orientation Groundspeed Altitude Reporting Facility
EDT Latitude Longitude Course Direction KTS MPH feet Rate Location/Type
11:33AM 42.9500 -71.4167 270° West 158 182 1,200  Level KA90
11:34AM 43.0250 -71.4092 North 201 231 4,300 2,280 Climbing Boston Center
11:35AM 42.9333 -71.7874 270° West  Level FlightAware Approximate
11:35AM 43.0383 -71.4942 282° West 174 200 6,900  Level Boston Center
11:36AM 42.9500 -71.9032 270° West  Level FlightAware Approximate
11:36AM 43.0372 -71.6106 269° West 221 254 10,400  Level Boston Center
11:37AM 42.9500 -72.0219 270° West  Level FlightAware Approximate
11:37AM 43.0358 -71.7214 269° West 299 344 11,900  Level Boston Center
11:38AM 42.9501 -72.1407 270° West  Level FlightAware Approximate
11:38AM 43.0347 -71.8664 269° West 349 402 14,000  Level Boston Center
11:39AM 43.0394 -71.9856 273° West 349 402 15,500 1,680 Climbing Boston Center
11:40AM 43.0692 -72.1586 283° West 354 407 17,800 1,860 Climbing Boston Center
11:41AM 43.0942 -72.2836 285° West 367 422 19,700 1,980 Climbing Boston Center
11:42AM 43.1172 -72.4231 283° West 376 433 21,800 1,800 Climbing Boston Center
11:43AM 43.1403 -72.5822 281° West 381 438 23,400 1,620 Climbing Boston Center
11:44AM 43.1544 -72.7417 277° West 412 474 25,100 1,260 Climbing Boston Center
11:45AM 43.1228 -72.8781 252° West 412 474 26,000 420 Climbing Boston Center
11:46AM 43.0553 -73.0539 242° Southwest 427 491 26,000  Level Boston Center
11:47AM 42.9958 -73.2064 242° Southwest 452 520 26,000  Level Boston Center
11:48AM 42.9322 -73.3617 241° Southwest 465 535 26,000  Level Boston Center
11:49AM 42.8792 -73.4828 239° Southwest 471 542 26,000  Level Boston Center
11:50AM 42.8064 -73.6656 242° Southwest 471 542 26,000  Level Boston Center
11:51AM 42.7400 -73.8169 239° Southwest 466 536 26,000  Level Boston Center
11:53AM 42.6694 -73.9650 237° Southwest 466 536 26,000  Level Boston Center
11:54AM 42.5878 -74.1406 238° Southwest 466 536 26,000  Level Boston Center
11:55AM 42.5167 -74.2850 236° Southwest 466 536 26,000  Level Boston Center
11:56AM 42.4497 -74.4181 236° Southwest 474 545 26,000  Level Boston Center
11:57AM 42.3764 -74.5592 235° Southwest 474 545 26,000  Level Boston Center
11:58AM 42.3069 -74.7056 237° Southwest 474 545 26,000 -1,200 Level Boston Center
12:00PM 42.1203 -75.0094 230° Southwest 452 520 22,100 -1,920 Descending New York Center
12:01PM 42.0153 -75.0950 211° Southwest 447 514 19,800 -1,620 Descending New York Center
12:02PM 41.9272 -75.1672 211° Southwest 442 509 19,000 -420 Descending New York Center
12:03PM 41.8136 -75.2569 210° Southwest 437 503 19,000 -600 Level New York Center
12:04PM 41.7147 -75.3392 212° Southwest 432 497 17,800 -1,620 Descending New York Center
12:05PM 41.6181 -75.4158 211° Southwest 423 487 15,900 -2,100 Descending New York Center
12:06PM 41.5364 -75.4822 211° Southwest 401 461 13,700 -1,980 Descending New York Center
12:07PM 41.4481 -75.5508 210° Southwest 383 441 12,000 -900 Descending New York Center
12:08PM 41.3533 -75.6269 211° Southwest 375 432 11,900 -60 Descending New York Center
12:09PM 41.2633 -75.6867 207° Southwest 375 432 11,900  Level New York Center
12:10PM 41.1614 -75.6875 180° South 356 410 11,900  Level New York Center
12:11PM 41.0731 -75.6564 165° South 351 404 11,900  Level New York Center
12:12PM 40.9664 -75.6186 165° South 356 410 12,000  Climbing New York Center
12:13PM 40.8678 -75.5839 165° South 361 415 12,000  Level New York Center
12:14PM 40.7711 -75.5497 165° South 366 421 12,000  Level New York Center
12:15PM 40.6828 -75.5164 164° South 372 428 12,000  Level New York Center
12:16PM 40.5842 -75.4822 165° South 372 428 12,000 -660 Level New York Center
12:17PM 40.5000 -75.4517 165° South 343 395 10,700 -1,020 Descending New York Center
12:18PM 40.4222 -75.4167 161° South 304 350 10,000 -660 Descending New York Center
12:19PM 40.3489 -75.3733 156° South 290 334 9,500 -780 Descending New York Center
12:20PM 40.2714 -75.3331 158° South 278 320 8,500 -900 Descending New York Center
12:21PM 40.1994 -75.3581 195° South 283 326 7,700 -720 Descending New York Center
12:22PM 40.1186 -75.3961 200° South 289 333 7,100 -600 Descending New York Center
12:23PM 40.0533 -75.4189 195° South 282 325 6,600 -600 Descending New York Center
12:24PM 39.9728 -75.3975 168° South 271 312 6,000 -300 Descending New York Center
12:25PM 39.9256 -75.4322 209° Southwest 187 215 6,000 1,980 Level New York Center
12:26PM 39.9081 -75.5067 253° West 187 215 10,000 -540 Climbing New York Center
12:27PM 39.8928 -75.5733 253° West 206 237 5,000 -2,880 Descending New York Center
12:28PM 39.8589 -75.6333 234° Southwest 206 237 4,300 -540 Descending New York Center
12:29PM 39.8161 -75.6114 158° South 169 194 4,000 -180 Descending New York Center
12:30PM 39.8000 -75.5500 109° East 159 183 4,000 -300 Level Philadelphia TRACON
12:31PM 39.8167 -75.5000 67° East 162 186 3,500 -720 Descending Philadelphia TRACON
12:32PM 39.8333 -75.4333 72° East 158 182 2,600 -900 Descending Philadelphia TRACON
12:33PM 39.8333 -75.3833 90° East 156 180 1,800 -780 Descending Philadelphia TRACON
12:34PM 39.8500 -75.3333 67° East 134 154 1,100 -720 Descending Philadelphia TRACON
12:35PM 39.8500 -75.3000 90° East 119 137 400 -720 Descending Philadelphia TRACON